sensor_id;sensor_type;location;lat;lon;timestamp;P1;durP1;ratioP1;P2;durP2;ratioP2
52368;SDS011;38298;50.346;3.526;2023-08-21T00:01:39;3.88;;;1.25;;
52368;SDS011;38298;50.346;3.526;2023-08-21T00:04:05;4.80;;;1.00;;
52368;SDS011;38298;50.346;3.526;2023-08-21T00:06:31;5.20;;;1.20;;
52368;SDS011;38298;50.346;3.526;2023-08-21T00:08:57;6.63;;;1.10;;
52368;SDS011;38298;50.346;3.526;2023-08-21T00:11:23;5.20;;;0.98;;
52368;SDS011;38298;50.346;3.526;2023-08-21T00:13:49;5.20;;;1.40;;
52368;SDS011;38298;50.346;3.526;2023-08-21T00:16:18;8.45;;;1.20;;
52368;SDS011;38298;50.346;3.526;2023-08-21T00:18:44;7.40;;;1.10;;
52368;SDS011;38298;50.346;3.526;2023-08-21T00:21:10;6.72;;;1.10;;
52368;SDS011;38298;50.346;3.526;2023-08-21T00:23:36;4.70;;;1.13;;
52368;SDS011;38298;50.346;3.526;2023-08-21T00:26:03;6.30;;;1.42;;
52368;SDS011;38298;50.346;3.526;2023-08-21T00:28:29;6.00;;;1.50;;
52368;SDS011;38298;50.346;3.526;2023-08-21T00:31:04;8.77;;;1.42;;
52368;SDS011;38298;50.346;3.526;2023-08-21T00:33:31;4.20;;;1.13;;
52368;SDS011;38298;50.346;3.526;2023-08-21T00:35:57;8.23;;;1.17;;
52368;SDS011;38298;50.346;3.526;2023-08-21T00:38:23;4.47;;;1.08;;
52368;SDS011;38298;50.346;3.526;2023-08-21T00:40:49;2.92;;;1.10;;
52368;SDS011;38298;50.346;3.526;2023-08-21T00:43:16;8.68;;;1.17;;
52368;SDS011;38298;50.346;3.526;2023-08-21T00:45:43;3.10;;;1.63;;
52368;SDS011;38298;50.346;3.526;2023-08-21T00:48:09;6.97;;;1.23;;
52368;SDS011;38298;50.346;3.526;2023-08-21T00:50:35;4.00;;;1.05;;
52368;SDS011;38298;50.346;3.526;2023-08-21T00:53:02;4.93;;;1.15;;
52368;SDS011;38298;50.346;3.526;2023-08-21T00:55:28;8.40;;;1.20;;
52368;SDS011;38298;50.346;3.526;2023-08-21T00:57:54;3.00;;;1.00;;
52368;SDS011;38298;50.346;3.526;2023-08-21T01:00:21;9.70;;;1.23;;
52368;SDS011;38298;50.346;3.526;2023-08-21T01:02:48;6.00;;;1.10;;
52368;SDS011;38298;50.346;3.526;2023-08-21T01:05:14;4.35;;;1.30;;
52368;SDS011;38298;50.346;3.526;2023-08-21T01:07:44;7.82;;;1.27;;
52368;SDS011;38298;50.346;3.526;2023-08-21T01:10:19;6.75;;;0.90;;
52368;SDS011;38298;50.346;3.526;2023-08-21T01:15:22;6.88;;;1.10;;
52368;SDS011;38298;50.346;3.526;2023-08-21T01:17:48;5.05;;;1.13;;
52368;SDS011;38298;50.346;3.526;2023-08-21T01:20:14;7.47;;;1.40;;
52368;SDS011;38298;50.346;3.526;2023-08-21T01:22:42;6.20;;;1.60;;
52368;SDS011;38298;50.346;3.526;2023-08-21T01:25:11;3.90;;;0.90;;
52368;SDS011;38298;50.346;3.526;2023-08-21T01:27:38;4.82;;;1.20;;
52368;SDS011;38298;50.346;3.526;2023-08-21T01:30:06;7.50;;;1.25;;
52368;SDS011;38298;50.346;3.526;2023-08-21T01:32:35;8.00;;;1.48;;
52368;SDS011;38298;50.346;3.526;2023-08-21T01:35:03;5.45;;;1.05;;
52368;SDS011;38298;50.346;3.526;2023-08-21T01:37:30;8.10;;;1.38;;
52368;SDS011;38298;50.346;3.526;2023-08-21T01:39:59;4.35;;;1.25;;
52368;SDS011;38298;50.346;3.526;2023-08-21T01:42:25;8.20;;;1.25;;
52368;SDS011;38298;50.346;3.526;2023-08-21T01:44:51;6.35;;;1.33;;
52368;SDS011;38298;50.346;3.526;2023-08-21T01:47:17;9.15;;;1.65;;
52368;SDS011;38298;50.346;3.526;2023-08-21T01:49:43;5.65;;;1.58;;
52368;SDS011;38298;50.346;3.526;2023-08-21T01:52:09;4.88;;;1.20;;
52368;SDS011;38298;50.346;3.526;2023-08-21T01:54:35;6.95;;;1.50;;
52368;SDS011;38298;50.346;3.526;2023-08-21T01:57:01;5.18;;;1.60;;
52368;SDS011;38298;50.346;3.526;2023-08-21T01:59:28;4.65;;;1.60;;
52368;SDS011;38298;50.346;3.526;2023-08-21T02:01:54;5.78;;;1.40;;
52368;SDS011;38298;50.346;3.526;2023-08-21T02:04:20;7.15;;;1.63;;
52368;SDS011;38298;50.346;3.526;2023-08-21T02:06:46;4.45;;;1.30;;
52368;SDS011;38298;50.346;3.526;2023-08-21T02:09:12;4.30;;;1.58;;
52368;SDS011;38298;50.346;3.526;2023-08-21T02:11:38;6.00;;;1.58;;
52368;SDS011;38298;50.346;3.526;2023-08-21T02:14:04;4.65;;;1.30;;
52368;SDS011;38298;50.346;3.526;2023-08-21T02:16:30;4.00;;;1.38;;
52368;SDS011;38298;50.346;3.526;2023-08-21T02:18:56;7.00;;;1.80;;
52368;SDS011;38298;50.346;3.526;2023-08-21T02:21:22;6.78;;;1.55;;
52368;SDS011;38298;50.346;3.526;2023-08-21T02:23:48;6.03;;;1.70;;
52368;SDS011;38298;50.346;3.526;2023-08-21T02:26:14;6.55;;;1.20;;
52368;SDS011;38298;50.346;3.526;2023-08-21T02:28:41;5.80;;;1.50;;
52368;SDS011;38298;50.346;3.526;2023-08-21T02:31:09;4.45;;;1.38;;
52368;SDS011;38298;50.346;3.526;2023-08-21T02:33:35;6.88;;;1.35;;
52368;SDS011;38298;50.346;3.526;2023-08-21T02:36:01;3.72;;;1.30;;
52368;SDS011;38298;50.346;3.526;2023-08-21T02:38:28;6.88;;;1.27;;
52368;SDS011;38298;50.346;3.526;2023-08-21T02:40:54;4.20;;;1.45;;
52368;SDS011;38298;50.346;3.526;2023-08-21T02:43:20;9.93;;;1.60;;
52368;SDS011;38298;50.346;3.526;2023-08-21T02:45:46;4.55;;;1.35;;
52368;SDS011;38298;50.346;3.526;2023-08-21T02:48:12;6.60;;;1.05;;
52368;SDS011;38298;50.346;3.526;2023-08-21T02:50:38;8.45;;;1.60;;
52368;SDS011;38298;50.346;3.526;2023-08-21T02:53:06;6.20;;;1.27;;
52368;SDS011;38298;50.346;3.526;2023-08-21T02:55:32;6.10;;;1.25;;
52368;SDS011;38298;50.346;3.526;2023-08-21T02:57:58;6.15;;;1.20;;
52368;SDS011;38298;50.346;3.526;2023-08-21T03:00:24;6.28;;;1.52;;
52368;SDS011;38298;50.346;3.526;2023-08-21T03:02:50;5.38;;;1.58;;
52368;SDS011;38298;50.346;3.526;2023-08-21T03:05:16;7.07;;;1.45;;
52368;SDS011;38298;50.346;3.526;2023-08-21T03:07:42;6.45;;;1.25;;
52368;SDS011;38298;50.346;3.526;2023-08-21T03:10:08;8.48;;;1.98;;
52368;SDS011;38298;50.346;3.526;2023-08-21T03:12:35;6.13;;;2.05;;
52368;SDS011;38298;50.346;3.526;2023-08-21T03:15:01;4.43;;;1.60;;
52368;SDS011;38298;50.346;3.526;2023-08-21T03:17:27;7.38;;;2.10;;
52368;SDS011;38298;50.346;3.526;2023-08-21T03:19:53;6.55;;;1.73;;
52368;SDS011;38298;50.346;3.526;2023-08-21T03:22:19;5.05;;;1.13;;
52368;SDS011;38298;50.346;3.526;2023-08-21T03:24:45;7.68;;;1.50;;
52368;SDS011;38298;50.346;3.526;2023-08-21T03:27:11;8.40;;;1.65;;
52368;SDS011;38298;50.346;3.526;2023-08-21T03:29:37;5.80;;;1.45;;
52368;SDS011;38298;50.346;3.526;2023-08-21T03:32:03;10.20;;;1.60;;
52368;SDS011;38298;50.346;3.526;2023-08-21T03:34:29;5.95;;;1.23;;
52368;SDS011;38298;50.346;3.526;2023-08-21T03:36:55;7.50;;;1.40;;
52368;SDS011;38298;50.346;3.526;2023-08-21T03:39:21;5.20;;;1.30;;
52368;SDS011;38298;50.346;3.526;2023-08-21T03:41:47;3.78;;;1.27;;
52368;SDS011;38298;50.346;3.526;2023-08-21T03:44:13;6.97;;;1.30;;
52368;SDS011;38298;50.346;3.526;2023-08-21T03:46:39;5.97;;;1.42;;
52368;SDS011;38298;50.346;3.526;2023-08-21T03:49:05;6.18;;;1.40;;
52368;SDS011;38298;50.346;3.526;2023-08-21T03:51:31;3.70;;;1.30;;
52368;SDS011;38298;50.346;3.526;2023-08-21T03:53:57;3.78;;;1.02;;
52368;SDS011;38298;50.346;3.526;2023-08-21T03:56:23;5.50;;;1.60;;
52368;SDS011;38298;50.346;3.526;2023-08-21T03:58:49;6.32;;;1.50;;
52368;SDS011;38298;50.346;3.526;2023-08-21T04:01:15;7.30;;;1.40;;
52368;SDS011;38298;50.346;3.526;2023-08-21T04:03:41;4.63;;;1.10;;
52368;SDS011;38298;50.346;3.526;2023-08-21T04:06:08;4.30;;;1.10;;
52368;SDS011;38298;50.346;3.526;2023-08-21T04:08:33;6.03;;;1.35;;
52368;SDS011;38298;50.346;3.526;2023-08-21T04:10:59;5.15;;;1.38;;
52368;SDS011;38298;50.346;3.526;2023-08-21T04:13:26;5.30;;;1.27;;
52368;SDS011;38298;50.346;3.526;2023-08-21T04:15:53;3.58;;;1.40;;
52368;SDS011;38298;50.346;3.526;2023-08-21T04:18:20;3.00;;;1.05;;
52368;SDS011;38298;50.346;3.526;2023-08-21T04:20:50;7.50;;;1.65;;
52368;SDS011;38298;50.346;3.526;2023-08-21T04:23:16;5.68;;;1.42;;
52368;SDS011;38298;50.346;3.526;2023-08-21T04:25:42;4.57;;;1.40;;
52368;SDS011;38298;50.346;3.526;2023-08-21T04:28:08;5.18;;;1.45;;
52368;SDS011;38298;50.346;3.526;2023-08-21T04:30:34;8.73;;;1.48;;
52368;SDS011;38298;50.346;3.526;2023-08-21T04:33:00;8.23;;;1.73;;
52368;SDS011;38298;50.346;3.526;2023-08-21T04:35:26;3.97;;;1.40;;
52368;SDS011;38298;50.346;3.526;2023-08-21T04:37:52;6.93;;;1.38;;
52368;SDS011;38298;50.346;3.526;2023-08-21T04:40:18;7.78;;;1.60;;
52368;SDS011;38298;50.346;3.526;2023-08-21T04:42:46;8.68;;;1.42;;
52368;SDS011;38298;50.346;3.526;2023-08-21T04:45:12;6.60;;;1.50;;
52368;SDS011;38298;50.346;3.526;2023-08-21T04:47:38;6.70;;;1.63;;
52368;SDS011;38298;50.346;3.526;2023-08-21T04:50:04;4.43;;;1.30;;
52368;SDS011;38298;50.346;3.526;2023-08-21T04:52:31;3.95;;;1.30;;
52368;SDS011;38298;50.346;3.526;2023-08-21T04:54:56;5.85;;;1.13;;
52368;SDS011;38298;50.346;3.526;2023-08-21T04:57:22;7.35;;;1.30;;
52368;SDS011;38298;50.346;3.526;2023-08-21T04:59:48;5.20;;;1.20;;
52368;SDS011;38298;50.346;3.526;2023-08-21T05:02:14;4.63;;;1.33;;
52368;SDS011;38298;50.346;3.526;2023-08-21T05:04:41;6.47;;;1.20;;
52368;SDS011;38298;50.346;3.526;2023-08-21T05:07:06;5.63;;;1.27;;
52368;SDS011;38298;50.346;3.526;2023-08-21T05:09:33;8.63;;;1.25;;
52368;SDS011;38298;50.346;3.526;2023-08-21T05:11:59;9.82;;;1.95;;
52368;SDS011;38298;50.346;3.526;2023-08-21T05:14:25;3.38;;;1.17;;
52368;SDS011;38298;50.346;3.526;2023-08-21T05:16:51;5.72;;;1.48;;
52368;SDS011;38298;50.346;3.526;2023-08-21T05:19:17;7.88;;;1.42;;
52368;SDS011;38298;50.346;3.526;2023-08-21T05:21:43;5.82;;;1.27;;
52368;SDS011;38298;50.346;3.526;2023-08-21T05:24:09;8.40;;;1.55;;
52368;SDS011;38298;50.346;3.526;2023-08-21T05:26:36;4.72;;;1.10;;
52368;SDS011;38298;50.346;3.526;2023-08-21T05:29:02;6.53;;;1.30;;
52368;SDS011;38298;50.346;3.526;2023-08-21T05:31:28;6.80;;;1.45;;
52368;SDS011;38298;50.346;3.526;2023-08-21T05:33:54;6.47;;;1.20;;
52368;SDS011;38298;50.346;3.526;2023-08-21T05:36:20;4.63;;;1.00;;
52368;SDS011;38298;50.346;3.526;2023-08-21T05:38:46;9.20;;;1.20;;
52368;SDS011;38298;50.346;3.526;2023-08-21T05:41:14;3.13;;;1.23;;
52368;SDS011;38298;50.346;3.526;2023-08-21T05:43:40;9.18;;;1.25;;
52368;SDS011;38298;50.346;3.526;2023-08-21T05:46:07;10.48;;;1.35;;
52368;SDS011;38298;50.346;3.526;2023-08-21T05:48:33;4.80;;;0.80;;
52368;SDS011;38298;50.346;3.526;2023-08-21T05:50:59;7.07;;;1.05;;
52368;SDS011;38298;50.346;3.526;2023-08-21T05:53:25;6.85;;;1.83;;
52368;SDS011;38298;50.346;3.526;2023-08-21T05:55:52;6.32;;;1.58;;
52368;SDS011;38298;50.346;3.526;2023-08-21T05:58:18;6.13;;;1.40;;
52368;SDS011;38298;50.346;3.526;2023-08-21T06:00:44;5.85;;;1.20;;
52368;SDS011;38298;50.346;3.526;2023-08-21T06:03:10;5.38;;;1.38;;
52368;SDS011;38298;50.346;3.526;2023-08-21T06:05:36;7.55;;;1.25;;
52368;SDS011;38298;50.346;3.526;2023-08-21T06:08:02;4.95;;;1.35;;
52368;SDS011;38298;50.346;3.526;2023-08-21T06:10:28;4.65;;;1.50;;
52368;SDS011;38298;50.346;3.526;2023-08-21T06:12:54;7.45;;;1.10;;
52368;SDS011;38298;50.346;3.526;2023-08-21T06:15:20;8.27;;;1.13;;
52368;SDS011;38298;50.346;3.526;2023-08-21T06:18:01;4.93;;;1.40;;
52368;SDS011;38298;50.346;3.526;2023-08-21T06:20:27;10.10;;;1.48;;
52368;SDS011;38298;50.346;3.526;2023-08-21T06:22:53;9.82;;;1.50;;
52368;SDS011;38298;50.346;3.526;2023-08-21T06:25:19;3.55;;;1.05;;
52368;SDS011;38298;50.346;3.526;2023-08-21T06:27:46;7.75;;;1.40;;
52368;SDS011;38298;50.346;3.526;2023-08-21T06:30:12;7.63;;;1.45;;
52368;SDS011;38298;50.346;3.526;2023-08-21T06:32:38;6.25;;;1.42;;
52368;SDS011;38298;50.346;3.526;2023-08-21T06:35:04;9.88;;;1.52;;
52368;SDS011;38298;50.346;3.526;2023-08-21T06:37:30;8.55;;;1.50;;
52368;SDS011;38298;50.346;3.526;2023-08-21T06:39:56;7.03;;;1.50;;
52368;SDS011;38298;50.346;3.526;2023-08-21T06:42:22;9.82;;;1.75;;
52368;SDS011;38298;50.346;3.526;2023-08-21T06:44:48;7.80;;;1.52;;
52368;SDS011;38298;50.346;3.526;2023-08-21T06:47:15;5.78;;;1.52;;
52368;SDS011;38298;50.346;3.526;2023-08-21T06:49:41;5.57;;;1.45;;
52368;SDS011;38298;50.346;3.526;2023-08-21T06:52:07;8.07;;;1.38;;
52368;SDS011;38298;50.346;3.526;2023-08-21T06:54:33;4.60;;;1.40;;
52368;SDS011;38298;50.346;3.526;2023-08-21T06:56:59;5.03;;;1.50;;
52368;SDS011;38298;50.346;3.526;2023-08-21T06:59:25;5.30;;;1.52;;
52368;SDS011;38298;50.346;3.526;2023-08-21T07:01:51;8.32;;;1.70;;
52368;SDS011;38298;50.346;3.526;2023-08-21T07:04:17;3.28;;;1.27;;
52368;SDS011;38298;50.346;3.526;2023-08-21T07:06:43;8.75;;;1.50;;
52368;SDS011;38298;50.346;3.526;2023-08-21T07:09:09;8.77;;;1.50;;
52368;SDS011;38298;50.346;3.526;2023-08-21T07:11:35;11.00;;;1.55;;
52368;SDS011;38298;50.346;3.526;2023-08-21T07:14:01;6.30;;;1.65;;
52368;SDS011;38298;50.346;3.526;2023-08-21T07:16:27;5.20;;;1.50;;
52368;SDS011;38298;50.346;3.526;2023-08-21T07:18:53;9.90;;;1.70;;
52368;SDS011;38298;50.346;3.526;2023-08-21T07:21:19;13.60;;;2.00;;
52368;SDS011;38298;50.346;3.526;2023-08-21T07:23:45;12.50;;;2.05;;
52368;SDS011;38298;50.346;3.526;2023-08-21T07:26:11;7.93;;;1.52;;
52368;SDS011;38298;50.346;3.526;2023-08-21T07:28:37;9.20;;;1.90;;
52368;SDS011;38298;50.346;3.526;2023-08-21T07:31:03;7.72;;;1.67;;
52368;SDS011;38298;50.346;3.526;2023-08-21T07:33:29;6.50;;;1.90;;
52368;SDS011;38298;50.346;3.526;2023-08-21T07:36:05;7.10;;;1.67;;
52368;SDS011;38298;50.346;3.526;2023-08-21T07:38:31;11.95;;;2.15;;
52368;SDS011;38298;50.346;3.526;2023-08-21T07:41:07;9.77;;;2.15;;
52368;SDS011;38298;50.346;3.526;2023-08-21T07:43:35;6.40;;;1.60;;
52368;SDS011;38298;50.346;3.526;2023-08-21T07:46:02;10.98;;;2.53;;
52368;SDS011;38298;50.346;3.526;2023-08-21T07:48:28;5.65;;;1.55;;
52368;SDS011;38298;50.346;3.526;2023-08-21T07:50:54;5.43;;;1.58;;
52368;SDS011;38298;50.346;3.526;2023-08-21T07:53:20;16.83;;;1.98;;
52368;SDS011;38298;50.346;3.526;2023-08-21T07:55:46;5.90;;;2.40;;
52368;SDS011;38298;50.346;3.526;2023-08-21T07:58:12;6.70;;;1.73;;
52368;SDS011;38298;50.346;3.526;2023-08-21T08:00:38;7.40;;;2.00;;
52368;SDS011;38298;50.346;3.526;2023-08-21T08:03:05;10.45;;;2.22;;
52368;SDS011;38298;50.346;3.526;2023-08-21T08:05:31;8.32;;;1.90;;
52368;SDS011;38298;50.346;3.526;2023-08-21T08:07:57;7.65;;;2.22;;
52368;SDS011;38298;50.346;3.526;2023-08-21T08:10:23;9.32;;;1.73;;
52368;SDS011;38298;50.346;3.526;2023-08-21T08:12:50;6.43;;;1.60;;
52368;SDS011;38298;50.346;3.526;2023-08-21T08:15:16;10.95;;;1.95;;
52368;SDS011;38298;50.346;3.526;2023-08-21T08:17:42;11.45;;;1.80;;
52368;SDS011;38298;50.346;3.526;2023-08-21T08:20:11;7.38;;;1.83;;
52368;SDS011;38298;50.346;3.526;2023-08-21T08:22:37;8.35;;;1.75;;
52368;SDS011;38298;50.346;3.526;2023-08-21T08:25:03;12.32;;;3.08;;
52368;SDS011;38298;50.346;3.526;2023-08-21T08:27:31;9.18;;;1.45;;
52368;SDS011;38298;50.346;3.526;2023-08-21T08:29:57;7.82;;;1.35;;
52368;SDS011;38298;50.346;3.526;2023-08-21T08:32:23;5.68;;;1.75;;
52368;SDS011;38298;50.346;3.526;2023-08-21T08:34:49;6.57;;;2.08;;
52368;SDS011;38298;50.346;3.526;2023-08-21T08:37:15;5.97;;;1.30;;
52368;SDS011;38298;50.346;3.526;2023-08-21T08:39:41;2.72;;;1.20;;
52368;SDS011;38298;50.346;3.526;2023-08-21T08:42:07;3.60;;;0.88;;
52368;SDS011;38298;50.346;3.526;2023-08-21T08:44:34;13.43;;;1.30;;
52368;SDS011;38298;50.346;3.526;2023-08-21T08:47:02;6.53;;;1.23;;
52368;SDS011;38298;50.346;3.526;2023-08-21T08:49:28;4.15;;;0.80;;
52368;SDS011;38298;50.346;3.526;2023-08-21T08:51:55;4.13;;;1.17;;
52368;SDS011;38298;50.346;3.526;2023-08-21T08:54:23;3.22;;;0.98;;
52368;SDS011;38298;50.346;3.526;2023-08-21T08:56:53;8.40;;;1.17;;
52368;SDS011;38298;50.346;3.526;2023-08-21T08:59:19;7.53;;;1.27;;
52368;SDS011;38298;50.346;3.526;2023-08-21T09:01:45;6.32;;;0.93;;
52368;SDS011;38298;50.346;3.526;2023-08-21T09:04:11;6.28;;;0.90;;
52368;SDS011;38298;50.346;3.526;2023-08-21T09:06:37;8.77;;;0.93;;
52368;SDS011;38298;50.346;3.526;2023-08-21T09:09:03;9.02;;;0.85;;
52368;SDS011;38298;50.346;3.526;2023-08-21T09:11:29;2.65;;;0.93;;
52368;SDS011;38298;50.346;3.526;2023-08-21T09:13:56;4.00;;;0.93;;
52368;SDS011;38298;50.346;3.526;2023-08-21T09:16:23;4.70;;;0.90;;
52368;SDS011;38298;50.346;3.526;2023-08-21T09:18:51;4.95;;;0.80;;
52368;SDS011;38298;50.346;3.526;2023-08-21T09:21:21;3.90;;;0.70;;
52368;SDS011;38298;50.346;3.526;2023-08-21T09:23:48;2.33;;;0.90;;
52368;SDS011;38298;50.346;3.526;2023-08-21T09:26:18;5.40;;;0.90;;
52368;SDS011;38298;50.346;3.526;2023-08-21T09:28:45;5.80;;;0.98;;
52368;SDS011;38298;50.346;3.526;2023-08-21T09:31:11;4.78;;;0.80;;
52368;SDS011;38298;50.346;3.526;2023-08-21T09:33:37;3.55;;;0.98;;
52368;SDS011;38298;50.346;3.526;2023-08-21T09:36:03;4.47;;;1.20;;
52368;SDS011;38298;50.346;3.526;2023-08-21T09:38:30;8.60;;;1.30;;
52368;SDS011;38298;50.346;3.526;2023-08-21T09:40:56;7.00;;;0.88;;
52368;SDS011;38298;50.346;3.526;2023-08-21T09:43:22;3.33;;;0.70;;
52368;SDS011;38298;50.346;3.526;2023-08-21T09:45:52;5.32;;;0.80;;
52368;SDS011;38298;50.346;3.526;2023-08-21T09:48:24;3.53;;;0.70;;
52368;SDS011;38298;50.346;3.526;2023-08-21T09:50:54;5.28;;;0.70;;
52368;SDS011;38298;50.346;3.526;2023-08-21T09:55:54;1.67;;;0.60;;
52368;SDS011;38298;50.346;3.526;2023-08-21T09:58:20;4.03;;;0.80;;
52368;SDS011;38298;50.346;3.526;2023-08-21T10:00:48;2.42;;;0.43;;
52368;SDS011;38298;50.346;3.526;2023-08-21T10:03:14;3.70;;;0.60;;
52368;SDS011;38298;50.346;3.526;2023-08-21T10:05:44;1.58;;;0.30;;
52368;SDS011;38298;50.346;3.526;2023-08-21T10:08:11;2.53;;;0.50;;
52368;SDS011;38298;50.346;3.526;2023-08-21T10:10:38;1.80;;;0.40;;
52368;SDS011;38298;50.346;3.526;2023-08-21T10:13:05;2.47;;;0.57;;
52368;SDS011;38298;50.346;3.526;2023-08-21T10:15:31;1.85;;;0.38;;
52368;SDS011;38298;50.346;3.526;2023-08-21T10:17:58;2.40;;;0.52;;
52368;SDS011;38298;50.346;3.526;2023-08-21T10:20:26;2.22;;;0.55;;
52368;SDS011;38298;50.346;3.526;2023-08-21T10:22:53;1.83;;;0.52;;
52368;SDS011;38298;50.346;3.526;2023-08-21T10:25:25;8.93;;;1.77;;
52368;SDS011;38298;50.346;3.526;2023-08-21T10:27:52;2.63;;;0.70;;
52368;SDS011;38298;50.346;3.526;2023-08-21T10:30:20;6.65;;;0.60;;
52368;SDS011;38298;50.346;3.526;2023-08-21T10:32:46;2.83;;;0.40;;
52368;SDS011;38298;50.346;3.526;2023-08-21T10:35:17;2.10;;;0.40;;
52368;SDS011;38298;50.346;3.526;2023-08-21T10:40:29;2.72;;;0.50;;
52368;SDS011;38298;50.346;3.526;2023-08-21T10:42:55;1.33;;;0.30;;
52368;SDS011;38298;50.346;3.526;2023-08-21T10:45:21;1.80;;;0.50;;
52368;SDS011;38298;50.346;3.526;2023-08-21T10:47:47;2.38;;;0.50;;
52368;SDS011;38298;50.346;3.526;2023-08-21T10:50:15;1.00;;;0.50;;
52368;SDS011;38298;50.346;3.526;2023-08-21T10:52:42;1.35;;;0.32;;
52368;SDS011;38298;50.346;3.526;2023-08-21T10:55:10;3.47;;;0.55;;
52368;SDS011;38298;50.346;3.526;2023-08-21T10:57:36;2.05;;;0.60;;
52368;SDS011;38298;50.346;3.526;2023-08-21T11:00:04;3.13;;;0.30;;
52368;SDS011;38298;50.346;3.526;2023-08-21T11:02:32;1.93;;;0.23;;
52368;SDS011;38298;50.346;3.526;2023-08-21T11:04:59;2.33;;;0.90;;
52368;SDS011;38298;50.346;3.526;2023-08-21T11:07:25;2.45;;;0.43;;
52368;SDS011;38298;50.346;3.526;2023-08-21T11:09:52;2.40;;;0.63;;
52368;SDS011;38298;50.346;3.526;2023-08-21T11:12:19;0.85;;;0.30;;
52368;SDS011;38298;50.346;3.526;2023-08-21T11:14:45;3.60;;;0.82;;
52368;SDS011;38298;50.346;3.526;2023-08-21T11:17:11;1.65;;;0.50;;
52368;SDS011;38298;50.346;3.526;2023-08-21T11:19:38;1.90;;;0.50;;
52368;SDS011;38298;50.346;3.526;2023-08-21T11:22:04;2.30;;;0.50;;
52368;SDS011;38298;50.346;3.526;2023-08-21T11:24:38;2.70;;;0.70;;
52368;SDS011;38298;50.346;3.526;2023-08-21T11:27:04;3.53;;;0.50;;
52368;SDS011;38298;50.346;3.526;2023-08-21T11:29:37;2.25;;;0.43;;
52368;SDS011;38298;50.346;3.526;2023-08-21T11:32:07;2.60;;;0.60;;
52368;SDS011;38298;50.346;3.526;2023-08-21T11:34:33;3.85;;;0.65;;
52368;SDS011;38298;50.346;3.526;2023-08-21T11:36:59;4.28;;;0.40;;
52368;SDS011;38298;50.346;3.526;2023-08-21T11:39:25;6.72;;;0.40;;
52368;SDS011;38298;50.346;3.526;2023-08-21T11:41:58;1.58;;;0.35;;
52368;SDS011;38298;50.346;3.526;2023-08-21T11:44:24;3.40;;;0.50;;
52368;SDS011;38298;50.346;3.526;2023-08-21T11:46:51;3.45;;;0.50;;
52368;SDS011;38298;50.346;3.526;2023-08-21T11:49:18;0.50;;;0.20;;
52368;SDS011;38298;50.346;3.526;2023-08-21T11:51:47;2.13;;;0.32;;
52368;SDS011;38298;50.346;3.526;2023-08-21T11:54:13;1.38;;;0.47;;
52368;SDS011;38298;50.346;3.526;2023-08-21T11:56:39;1.65;;;0.43;;
52368;SDS011;38298;50.346;3.526;2023-08-21T11:59:08;0.95;;;0.22;;
52368;SDS011;38298;50.346;3.526;2023-08-21T12:01:34;7.13;;;0.60;;
52368;SDS011;38298;50.346;3.526;2023-08-21T12:04:00;1.52;;;0.60;;
52368;SDS011;38298;50.346;3.526;2023-08-21T12:06:26;1.10;;;0.30;;
52368;SDS011;38298;50.346;3.526;2023-08-21T12:08:57;3.10;;;0.50;;
52368;SDS011;38298;50.346;3.526;2023-08-21T12:11:23;2.50;;;0.75;;
52368;SDS011;38298;50.346;3.526;2023-08-21T12:13:50;1.67;;;0.57;;
52368;SDS011;38298;50.346;3.526;2023-08-21T12:16:17;5.03;;;0.52;;
52368;SDS011;38298;50.346;3.526;2023-08-21T12:18:42;2.67;;;0.45;;
52368;SDS011;38298;50.346;3.526;2023-08-21T12:21:08;1.67;;;0.55;;
52368;SDS011;38298;50.346;3.526;2023-08-21T12:23:34;1.48;;;0.30;;
52368;SDS011;38298;50.346;3.526;2023-08-21T12:26:01;1.77;;;0.32;;
52368;SDS011;38298;50.346;3.526;2023-08-21T12:28:27;2.17;;;0.30;;
52368;SDS011;38298;50.346;3.526;2023-08-21T12:30:53;1.48;;;0.57;;
52368;SDS011;38298;50.346;3.526;2023-08-21T12:33:19;1.17;;;0.22;;
52368;SDS011;38298;50.346;3.526;2023-08-21T12:35:45;1.38;;;0.30;;
52368;SDS011;38298;50.346;3.526;2023-08-21T12:38:11;1.10;;;0.20;;
52368;SDS011;38298;50.346;3.526;2023-08-21T12:40:38;1.98;;;0.30;;
52368;SDS011;38298;50.346;3.526;2023-08-21T12:43:04;1.35;;;0.20;;
52368;SDS011;38298;50.346;3.526;2023-08-21T12:45:30;1.38;;;0.20;;
52368;SDS011;38298;50.346;3.526;2023-08-21T12:47:56;1.70;;;0.52;;
52368;SDS011;38298;50.346;3.526;2023-08-21T12:50:22;3.90;;;0.47;;
52368;SDS011;38298;50.346;3.526;2023-08-21T12:52:48;1.42;;;0.22;;
52368;SDS011;38298;50.346;3.526;2023-08-21T12:55:14;0.95;;;0.28;;
52368;SDS011;38298;50.346;3.526;2023-08-21T12:57:40;5.70;;;0.75;;
52368;SDS011;38298;50.346;3.526;2023-08-21T13:00:06;0.85;;;0.28;;
52368;SDS011;38298;50.346;3.526;2023-08-21T13:02:32;0.85;;;0.35;;
52368;SDS011;38298;50.346;3.526;2023-08-21T13:04:58;1.80;;;0.30;;
52368;SDS011;38298;50.346;3.526;2023-08-21T13:07:24;4.25;;;0.73;;
52368;SDS011;38298;50.346;3.526;2023-08-21T13:09:50;1.38;;;0.55;;
52368;SDS011;38298;50.346;3.526;2023-08-21T13:12:16;0.93;;;0.30;;
52368;SDS011;38298;50.346;3.526;2023-08-21T13:14:42;1.80;;;0.43;;
52368;SDS011;38298;50.346;3.526;2023-08-21T13:17:08;0.40;;;0.20;;
52368;SDS011;38298;50.346;3.526;2023-08-21T13:19:35;0.32;;;0.20;;
52368;SDS011;38298;50.346;3.526;2023-08-21T13:22:01;1.40;;;0.30;;
52368;SDS011;38298;50.346;3.526;2023-08-21T13:24:28;0.55;;;0.20;;
52368;SDS011;38298;50.346;3.526;2023-08-21T13:26:55;0.73;;;0.25;;
52368;SDS011;38298;50.346;3.526;2023-08-21T13:29:21;1.33;;;0.20;;
52368;SDS011;38298;50.346;3.526;2023-08-21T13:31:48;0.68;;;0.38;;
52368;SDS011;38298;50.346;3.526;2023-08-21T13:34:14;0.80;;;0.25;;
52368;SDS011;38298;50.346;3.526;2023-08-21T13:36:40;2.58;;;0.20;;
52368;SDS011;38298;50.346;3.526;2023-08-21T13:39:06;1.30;;;0.35;;
52368;SDS011;38298;50.346;3.526;2023-08-21T13:41:33;2.58;;;0.22;;
52368;SDS011;38298;50.346;3.526;2023-08-21T13:43:59;1.23;;;0.38;;
52368;SDS011;38298;50.346;3.526;2023-08-21T13:46:25;0.65;;;0.20;;
52368;SDS011;38298;50.346;3.526;2023-08-21T13:48:51;0.32;;;0.10;;
52368;SDS011;38298;50.346;3.526;2023-08-21T13:51:17;0.85;;;0.20;;
52368;SDS011;38298;50.346;3.526;2023-08-21T13:53:43;1.05;;;0.10;;
52368;SDS011;38298;50.346;3.526;2023-08-21T13:56:09;1.17;;;0.20;;
52368;SDS011;38298;50.346;3.526;2023-08-21T13:58:35;0.52;;;0.10;;
52368;SDS011;38298;50.346;3.526;2023-08-21T14:01:01;1.15;;;0.30;;
52368;SDS011;38298;50.346;3.526;2023-08-21T14:03:28;0.43;;;0.17;;
52368;SDS011;38298;50.346;3.526;2023-08-21T14:05:54;0.45;;;0.20;;
52368;SDS011;38298;50.346;3.526;2023-08-21T14:08:20;1.92;;;0.30;;
52368;SDS011;38298;50.346;3.526;2023-08-21T14:10:48;0.20;;;0.10;;
52368;SDS011;38298;50.346;3.526;2023-08-21T14:13:14;0.43;;;0.30;;
52368;SDS011;38298;50.346;3.526;2023-08-21T14:15:40;0.70;;;0.30;;
52368;SDS011;38298;50.346;3.526;2023-08-21T14:18:06;0.77;;;0.25;;
52368;SDS011;38298;50.346;3.526;2023-08-21T14:20:32;0.63;;;0.28;;
52368;SDS011;38298;50.346;3.526;2023-08-21T14:22:58;0.80;;;0.20;;
52368;SDS011;38298;50.346;3.526;2023-08-21T14:25:24;0.70;;;0.20;;
52368;SDS011;38298;50.346;3.526;2023-08-21T14:27:50;0.65;;;0.20;;
52368;SDS011;38298;50.346;3.526;2023-08-21T14:30:16;1.00;;;0.20;;
52368;SDS011;38298;50.346;3.526;2023-08-21T14:32:42;0.60;;;0.40;;
52368;SDS011;38298;50.346;3.526;2023-08-21T14:35:08;2.28;;;0.10;;
52368;SDS011;38298;50.346;3.526;2023-08-21T14:37:37;0.55;;;0.20;;
52368;SDS011;38298;50.346;3.526;2023-08-21T14:40:06;1.08;;;0.15;;
52368;SDS011;38298;50.346;3.526;2023-08-21T14:42:33;0.52;;;0.32;;
52368;SDS011;38298;50.346;3.526;2023-08-21T14:44:59;0.80;;;0.20;;
52368;SDS011;38298;50.346;3.526;2023-08-21T14:47:25;1.30;;;0.25;;
52368;SDS011;38298;50.346;3.526;2023-08-21T14:49:51;0.28;;;0.10;;
52368;SDS011;38298;50.346;3.526;2023-08-21T14:52:17;0.47;;;0.10;;